Delta, Kentucky
Current Conditions -  °F | °C
As of 2:25 PM on Thursday 27 Nov 2014 (Local Time) from KEKQ Reporting Station
Light Snow Light Snow  
Wind Chill: 23°   Ceiling: 1600
Heat Index: 32°   Visibility: 7mi
Dew Point: 28°   Wind: 12mph
Humidity: 87%   Direction: 310°NW
Pressure: 30.38"   Gusts: NA
Location:  36.8129°N, 84.8215°W
Report Text: KEKQ 271925Z AUTO 31010KT 7SM -SN BKN016 OVC024 00/M02 A3038 RMK AO2 P0000
Loading
Personal Weather Stations






























Interactive Weather Map New forecast layout! Learn more

10-Day Weather Forecast

Advertisements
Track Severe Weather on mobile